sensor_id;sensor_type;location;lat;lon;timestamp;temperature;humidity
53844;DHT22;39744;53.314;5.710;2023-02-03T00:02:13;7.90;99.90
53844;DHT22;39744;53.314;5.710;2023-02-03T00:04:39;7.60;99.90
53844;DHT22;39744;53.314;5.710;2023-02-03T00:07:04;7.60;99.90
53844;DHT22;39744;53.314;5.710;2023-02-03T00:09:30;7.50;99.90
53844;DHT22;39744;53.314;5.710;2023-02-03T00:11:56;7.70;99.90
53844;DHT22;39744;53.314;5.710;2023-02-03T00:14:21;7.60;99.90
53844;DHT22;39744;53.314;5.710;2023-02-03T00:16:47;7.60;99.90
53844;DHT22;39744;53.314;5.710;2023-02-03T00:19:12;7.90;99.90
53844;DHT22;39744;53.314;5.710;2023-02-03T00:21:38;7.60;99.90
53844;DHT22;39744;53.314;5.710;2023-02-03T00:24:04;7.80;99.90
53844;DHT22;39744;53.314;5.710;2023-02-03T00:26:29;8.00;99.90
53844;DHT22;39744;53.314;5.710;2023-02-03T00:28:55;8.20;99.90
53844;DHT22;39744;53.314;5.710;2023-02-03T00:31:23;7.80;99.90
53844;DHT22;39744;53.314;5.710;2023-02-03T00:33:52;7.90;99.90
53844;DHT22;39744;53.314;5.710;2023-02-03T00:36:18;8.10;99.90
53844;DHT22;39744;53.314;5.710;2023-02-03T00:38:44;7.80;99.90
53844;DHT22;39744;53.314;5.710;2023-02-03T00:41:09;7.80;99.90
53844;DHT22;39744;53.314;5.710;2023-02-03T00:43:35;7.80;99.90
53844;DHT22;39744;53.314;5.710;2023-02-03T00:46:00;7.70;99.90
53844;DHT22;39744;53.314;5.710;2023-02-03T00:48:26;7.80;99.90
53844;DHT22;39744;53.314;5.710;2023-02-03T00:50:51;7.70;99.90
53844;DHT22;39744;53.314;5.710;2023-02-03T00:53:17;7.70;99.90
53844;DHT22;39744;53.314;5.710;2023-02-03T00:55:42;7.90;99.90
53844;DHT22;39744;53.314;5.710;2023-02-03T00:58:08;7.70;99.90
53844;DHT22;39744;53.314;5.710;2023-02-03T01:00:33;7.70;99.90
53844;DHT22;39744;53.314;5.710;2023-02-03T01:02:59;7.80;99.90
53844;DHT22;39744;53.314;5.710;2023-02-03T01:05:27;7.80;99.90
53844;DHT22;39744;53.314;5.710;2023-02-03T01:07:53;8.10;99.90
53844;DHT22;39744;53.314;5.710;2023-02-03T01:10:18;8.30;99.90
53844;DHT22;39744;53.314;5.710;2023-02-03T01:12:44;8.10;99.90
53844;DHT22;39744;53.314;5.710;2023-02-03T01:15:10;7.90;99.90
53844;DHT22;39744;53.314;5.710;2023-02-03T01:17:35;7.90;99.90
53844;DHT22;39744;53.314;5.710;2023-02-03T01:20:00;7.90;99.90
53844;DHT22;39744;53.314;5.710;2023-02-03T01:22:28;7.90;99.90
53844;DHT22;39744;53.314;5.710;2023-02-03T01:24:53;7.90;99.90
53844;DHT22;39744;53.314;5.710;2023-02-03T01:27:19;7.90;99.90
53844;DHT22;39744;53.314;5.710;2023-02-03T01:29:44;8.00;99.90
53844;DHT22;39744;53.314;5.710;2023-02-03T01:32:10;8.00;99.90
53844;DHT22;39744;53.314;5.710;2023-02-03T01:34:35;8.00;99.90
53844;DHT22;39744;53.314;5.710;2023-02-03T01:37:01;8.10;99.90
53844;DHT22;39744;53.314;5.710;2023-02-03T01:39:26;8.00;99.90
53844;DHT22;39744;53.314;5.710;2023-02-03T01:41:53;8.10;99.90
53844;DHT22;39744;53.314;5.710;2023-02-03T01:47:00;8.20;99.90
53844;DHT22;39744;53.314;5.710;2023-02-03T01:49:28;8.00;99.90
53844;DHT22;39744;53.314;5.710;2023-02-03T01:51:54;8.00;99.90
53844;DHT22;39744;53.314;5.710;2023-02-03T01:54:21;8.00;99.90
53844;DHT22;39744;53.314;5.710;2023-02-03T01:56:50;7.80;99.90
53844;DHT22;39744;53.314;5.710;2023-02-03T01:59:16;7.90;99.90
53844;DHT22;39744;53.314;5.710;2023-02-03T02:01:43;7.90;99.90
53844;DHT22;39744;53.314;5.710;2023-02-03T02:04:09;7.90;99.90
53844;DHT22;39744;53.314;5.710;2023-02-03T02:06:34;7.90;99.90
53844;DHT22;39744;53.314;5.710;2023-02-03T02:09:00;7.90;99.90
53844;DHT22;39744;53.314;5.710;2023-02-03T02:11:26;7.90;99.90
53844;DHT22;39744;53.314;5.710;2023-02-03T02:13:52;7.90;99.90
53844;DHT22;39744;53.314;5.710;2023-02-03T02:19:00;8.10;99.90
53844;DHT22;39744;53.314;5.710;2023-02-03T02:21:44;8.10;99.90
53844;DHT22;39744;53.314;5.710;2023-02-03T02:32:02;8.00;99.90
53844;DHT22;39744;53.314;5.710;2023-02-03T02:42:09;7.90;99.90
53844;DHT22;39744;53.314;5.710;2023-02-03T02:44:40;7.80;99.90
53844;DHT22;39744;53.314;5.710;2023-02-03T02:47:09;7.90;99.90
53844;DHT22;39744;53.314;5.710;2023-02-03T02:49:49;7.80;99.90
53844;DHT22;39744;53.314;5.710;2023-02-03T02:52:16;8.10;99.90
53844;DHT22;39744;53.314;5.710;2023-02-03T02:54:43;7.90;99.90
53844;DHT22;39744;53.314;5.710;2023-02-03T02:57:11;7.90;99.90
53844;DHT22;39744;53.314;5.710;2023-02-03T02:59:37;8.00;99.90
53844;DHT22;39744;53.314;5.710;2023-02-03T03:02:03;7.90;99.90
53844;DHT22;39744;53.314;5.710;2023-02-03T03:04:29;8.00;99.90
53844;DHT22;39744;53.314;5.710;2023-02-03T03:06:57;7.90;99.90
53844;DHT22;39744;53.314;5.710;2023-02-03T03:09:24;8.00;99.90
53844;DHT22;39744;53.314;5.710;2023-02-03T03:12:03;7.90;99.90
53844;DHT22;39744;53.314;5.710;2023-02-03T03:14:31;8.10;99.90
53844;DHT22;39744;53.314;5.710;2023-02-03T03:16:58;8.00;99.90
53844;DHT22;39744;53.314;5.710;2023-02-03T03:19:26;7.90;99.90
53844;DHT22;39744;53.314;5.710;2023-02-03T03:21:53;8.00;99.90
53844;DHT22;39744;53.314;5.710;2023-02-03T03:24:21;8.00;99.90
53844;DHT22;39744;53.314;5.710;2023-02-03T03:29:15;7.90;99.90
53844;DHT22;39744;53.314;5.710;2023-02-03T03:31:42;7.80;99.90
53844;DHT22;39744;53.314;5.710;2023-02-03T03:34:08;7.80;99.90
53844;DHT22;39744;53.314;5.710;2023-02-03T03:37:18;7.90;99.90
53844;DHT22;39744;53.314;5.710;2023-02-03T03:39:28;8.10;99.90
53844;DHT22;39744;53.314;5.710;2023-02-03T03:44:32;8.00;99.90
53844;DHT22;39744;53.314;5.710;2023-02-03T03:47:00;8.10;99.90
53844;DHT22;39744;53.314;5.710;2023-02-03T03:49:29;7.90;99.90
53844;DHT22;39744;53.314;5.710;2023-02-03T03:51:56;7.90;99.90
53844;DHT22;39744;53.314;5.710;2023-02-03T03:54:23;7.90;99.90
53844;DHT22;39744;53.314;5.710;2023-02-03T03:59:15;8.00;99.90
53844;DHT22;39744;53.314;5.710;2023-02-03T04:01:43;7.90;99.90
53844;DHT22;39744;53.314;5.710;2023-02-03T04:04:09;8.00;99.90
53844;DHT22;39744;53.314;5.710;2023-02-03T04:06:37;7.90;99.90
53844;DHT22;39744;53.314;5.710;2023-02-03T04:09:02;8.00;99.90
53844;DHT22;39744;53.314;5.710;2023-02-03T04:11:28;8.10;99.90
53844;DHT22;39744;53.314;5.710;2023-02-03T04:14:12;8.00;99.90
53844;DHT22;39744;53.314;5.710;2023-02-03T04:16:37;7.90;99.90
53844;DHT22;39744;53.314;5.710;2023-02-03T04:19:03;8.00;99.90
53844;DHT22;39744;53.314;5.710;2023-02-03T04:21:28;7.90;99.90
53844;DHT22;39744;53.314;5.710;2023-02-03T04:23:54;7.80;99.90
53844;DHT22;39744;53.314;5.710;2023-02-03T04:26:24;7.60;99.90
53844;DHT22;39744;53.314;5.710;2023-02-03T04:28:49;7.70;99.90
53844;DHT22;39744;53.314;5.710;2023-02-03T04:31:15;7.60;99.90
53844;DHT22;39744;53.314;5.710;2023-02-03T04:33:40;7.80;99.90
53844;DHT22;39744;53.314;5.710;2023-02-03T04:36:06;7.80;99.90
53844;DHT22;39744;53.314;5.710;2023-02-03T04:38:31;8.10;99.90
53844;DHT22;39744;53.314;5.710;2023-02-03T04:40:57;7.70;99.90
53844;DHT22;39744;53.314;5.710;2023-02-03T04:43:23;7.70;99.90
53844;DHT22;39744;53.314;5.710;2023-02-03T04:45:48;7.80;99.90
53844;DHT22;39744;53.314;5.710;2023-02-03T04:48:14;7.80;99.90
53844;DHT22;39744;53.314;5.710;2023-02-03T04:50:39;7.80;99.90
53844;DHT22;39744;53.314;5.710;2023-02-03T04:53:05;7.80;99.90
53844;DHT22;39744;53.314;5.710;2023-02-03T04:55:30;7.80;99.90
53844;DHT22;39744;53.314;5.710;2023-02-03T04:57:56;7.70;99.90
53844;DHT22;39744;53.314;5.710;2023-02-03T05:00:22;8.00;99.90
53844;DHT22;39744;53.314;5.710;2023-02-03T05:02:48;9.40;99.90
53844;DHT22;39744;53.314;5.710;2023-02-03T05:05:13;7.90;99.90
53844;DHT22;39744;53.314;5.710;2023-02-03T05:07:39;8.20;99.90
53844;DHT22;39744;53.314;5.710;2023-02-03T05:10:04;7.90;99.90
53844;DHT22;39744;53.314;5.710;2023-02-03T05:12:30;8.20;99.90
53844;DHT22;39744;53.314;5.710;2023-02-03T05:14:55;8.00;99.90
53844;DHT22;39744;53.314;5.710;2023-02-03T05:17:21;8.10;99.90
53844;DHT22;39744;53.314;5.710;2023-02-03T05:19:46;8.00;99.90
53844;DHT22;39744;53.314;5.710;2023-02-03T05:22:12;8.10;99.90
53844;DHT22;39744;53.314;5.710;2023-02-03T05:24:37;8.10;99.90
53844;DHT22;39744;53.314;5.710;2023-02-03T05:27:03;8.00;99.90
53844;DHT22;39744;53.314;5.710;2023-02-03T05:29:28;8.10;99.90
53844;DHT22;39744;53.314;5.710;2023-02-03T05:31:54;8.10;99.90
53844;DHT22;39744;53.314;5.710;2023-02-03T05:34:19;8.10;99.90
53844;DHT22;39744;53.314;5.710;2023-02-03T05:36:45;8.00;99.90
53844;DHT22;39744;53.314;5.710;2023-02-03T05:39:10;8.10;99.90
53844;DHT22;39744;53.314;5.710;2023-02-03T05:41:36;8.00;99.90
53844;DHT22;39744;53.314;5.710;2023-02-03T05:44:20;8.00;99.90
53844;DHT22;39744;53.314;5.710;2023-02-03T05:46:46;7.90;99.90
53844;DHT22;39744;53.314;5.710;2023-02-03T05:49:12;8.00;99.90
53844;DHT22;39744;53.314;5.710;2023-02-03T05:51:38;7.90;99.90
53844;DHT22;39744;53.314;5.710;2023-02-03T05:54:04;8.00;99.90
53844;DHT22;39744;53.314;5.710;2023-02-03T05:56:29;8.20;99.90
53844;DHT22;39744;53.314;5.710;2023-02-03T05:58:55;7.90;99.90
53844;DHT22;39744;53.314;5.710;2023-02-03T06:01:20;8.00;99.90
53844;DHT22;39744;53.314;5.710;2023-02-03T06:03:46;7.90;99.90
53844;DHT22;39744;53.314;5.710;2023-02-03T06:06:12;7.80;99.90
53844;DHT22;39744;53.314;5.710;2023-02-03T06:08:37;7.80;99.90
53844;DHT22;39744;53.314;5.710;2023-02-03T06:11:03;7.90;99.90
53844;DHT22;39744;53.314;5.710;2023-02-03T06:13:29;8.10;99.90
53844;DHT22;39744;53.314;5.710;2023-02-03T06:15:54;7.90;99.90
53844;DHT22;39744;53.314;5.710;2023-02-03T06:18:20;7.90;99.90
53844;DHT22;39744;53.314;5.710;2023-02-03T06:20:46;7.70;99.90
53844;DHT22;39744;53.314;5.710;2023-02-03T06:23:11;7.80;99.90
53844;DHT22;39744;53.314;5.710;2023-02-03T06:25:37;7.80;99.90
53844;DHT22;39744;53.314;5.710;2023-02-03T06:28:03;7.70;99.90
53844;DHT22;39744;53.314;5.710;2023-02-03T06:30:28;7.90;99.90
53844;DHT22;39744;53.314;5.710;2023-02-03T06:32:54;7.70;99.90
53844;DHT22;39744;53.314;5.710;2023-02-03T06:35:19;7.60;99.90
53844;DHT22;39744;53.314;5.710;2023-02-03T06:37:45;7.70;99.90
53844;DHT22;39744;53.314;5.710;2023-02-03T06:40:11;7.50;99.90
53844;DHT22;39744;53.314;5.710;2023-02-03T06:42:36;7.90;99.90
53844;DHT22;39744;53.314;5.710;2023-02-03T06:45:02;7.60;99.90
53844;DHT22;39744;53.314;5.710;2023-02-03T06:47:30;7.80;99.90
53844;DHT22;39744;53.314;5.710;2023-02-03T06:49:56;7.90;99.90
53844;DHT22;39744;53.314;5.710;2023-02-03T06:52:21;7.70;99.90
53844;DHT22;39744;53.314;5.710;2023-02-03T06:54:47;7.50;99.90
53844;DHT22;39744;53.314;5.710;2023-02-03T06:57:12;7.70;99.90
53844;DHT22;39744;53.314;5.710;2023-02-03T06:59:38;7.80;99.90
53844;DHT22;39744;53.314;5.710;2023-02-03T07:02:03;7.70;99.90
53844;DHT22;39744;53.314;5.710;2023-02-03T07:04:29;7.80;99.90
53844;DHT22;39744;53.314;5.710;2023-02-03T07:06:57;8.40;99.90
53844;DHT22;39744;53.314;5.710;2023-02-03T07:09:23;8.10;99.90
53844;DHT22;39744;53.314;5.710;2023-02-03T07:11:48;7.60;99.90
53844;DHT22;39744;53.314;5.710;2023-02-03T07:14:14;8.20;99.90
53844;DHT22;39744;53.314;5.710;2023-02-03T07:16:39;8.10;99.90
53844;DHT22;39744;53.314;5.710;2023-02-03T07:19:05;7.80;99.90
53844;DHT22;39744;53.314;5.710;2023-02-03T07:21:31;7.50;99.90
53844;DHT22;39744;53.314;5.710;2023-02-03T07:23:56;7.30;99.90
53844;DHT22;39744;53.314;5.710;2023-02-03T07:26:23;7.70;99.90
53844;DHT22;39744;53.314;5.710;2023-02-03T07:28:51;7.60;99.90
53844;DHT22;39744;53.314;5.710;2023-02-03T07:31:17;7.60;99.90
53844;DHT22;39744;53.314;5.710;2023-02-03T07:33:42;7.60;99.90
53844;DHT22;39744;53.314;5.710;2023-02-03T07:36:08;7.50;99.90
53844;DHT22;39744;53.314;5.710;2023-02-03T07:38:34;7.80;99.90
53844;DHT22;39744;53.314;5.710;2023-02-03T07:40:59;7.60;99.90
53844;DHT22;39744;53.314;5.710;2023-02-03T07:43:25;7.60;99.90
53844;DHT22;39744;53.314;5.710;2023-02-03T07:45:51;7.70;99.90
53844;DHT22;39744;53.314;5.710;2023-02-03T07:48:16;7.60;99.90
53844;DHT22;39744;53.314;5.710;2023-02-03T07:50:42;7.60;99.90
53844;DHT22;39744;53.314;5.710;2023-02-03T07:53:07;7.50;99.90
53844;DHT22;39744;53.314;5.710;2023-02-03T07:55:33;7.70;99.90
53844;DHT22;39744;53.314;5.710;2023-02-03T07:57:59;7.60;99.90
53844;DHT22;39744;53.314;5.710;2023-02-03T08:00:25;7.50;99.90
53844;DHT22;39744;53.314;5.710;2023-02-03T08:02:50;7.80;99.90
53844;DHT22;39744;53.314;5.710;2023-02-03T08:05:16;7.70;99.90
53844;DHT22;39744;53.314;5.710;2023-02-03T08:07:42;7.80;99.90
53844;DHT22;39744;53.314;5.710;2023-02-03T08:10:08;7.50;99.90
53844;DHT22;39744;53.314;5.710;2023-02-03T08:12:34;8.20;99.90
53844;DHT22;39744;53.314;5.710;2023-02-03T08:15:00;7.40;99.90
53844;DHT22;39744;53.314;5.710;2023-02-03T08:17:26;7.70;99.90
53844;DHT22;39744;53.314;5.710;2023-02-03T08:19:51;8.20;99.90
53844;DHT22;39744;53.314;5.710;2023-02-03T08:22:17;8.30;99.90
53844;DHT22;39744;53.314;5.710;2023-02-03T08:24:43;8.30;99.90
53844;DHT22;39744;53.314;5.710;2023-02-03T08:27:17;8.30;99.90
53844;DHT22;39744;53.314;5.710;2023-02-03T08:29:43;8.50;99.90
53844;DHT22;39744;53.314;5.710;2023-02-03T08:32:10;8.40;99.90
53844;DHT22;39744;53.314;5.710;2023-02-03T08:34:36;8.40;99.90
53844;DHT22;39744;53.314;5.710;2023-02-03T08:37:01;8.80;99.90
53844;DHT22;39744;53.314;5.710;2023-02-03T08:39:27;8.50;99.90
53844;DHT22;39744;53.314;5.710;2023-02-03T08:41:55;8.50;99.90
53844;DHT22;39744;53.314;5.710;2023-02-03T08:44:21;8.40;99.90
53844;DHT22;39744;53.314;5.710;2023-02-03T08:46:50;8.50;99.90
53844;DHT22;39744;53.314;5.710;2023-02-03T08:49:16;8.60;99.90
53844;DHT22;39744;53.314;5.710;2023-02-03T08:51:43;8.30;99.90
53844;DHT22;39744;53.314;5.710;2023-02-03T08:54:09;8.30;99.90
53844;DHT22;39744;53.314;5.710;2023-02-03T08:56:34;8.30;99.90
53844;DHT22;39744;53.314;5.710;2023-02-03T08:59:00;8.30;99.90
53844;DHT22;39744;53.314;5.710;2023-02-03T09:01:26;8.30;99.90
53844;DHT22;39744;53.314;5.710;2023-02-03T09:03:51;8.20;99.90
53844;DHT22;39744;53.314;5.710;2023-02-03T09:06:17;8.30;99.90
53844;DHT22;39744;53.314;5.710;2023-02-03T09:08:43;8.30;99.90
53844;DHT22;39744;53.314;5.710;2023-02-03T09:11:09;8.30;99.90
53844;DHT22;39744;53.314;5.710;2023-02-03T09:13:34;8.30;99.90
53844;DHT22;39744;53.314;5.710;2023-02-03T09:16:00;8.20;99.90
53844;DHT22;39744;53.314;5.710;2023-02-03T09:18:25;8.00;99.90
53844;DHT22;39744;53.314;5.710;2023-02-03T09:20:51;8.20;99.90
53844;DHT22;39744;53.314;5.710;2023-02-03T09:23:17;8.20;99.90
53844;DHT22;39744;53.314;5.710;2023-02-03T09:25:42;8.20;99.90
53844;DHT22;39744;53.314;5.710;2023-02-03T09:28:08;8.20;99.90
53844;DHT22;39744;53.314;5.710;2023-02-03T09:30:33;8.20;99.90
53844;DHT22;39744;53.314;5.710;2023-02-03T09:32:59;7.90;99.90
53844;DHT22;39744;53.314;5.710;2023-02-03T09:35:24;7.90;99.90
53844;DHT22;39744;53.314;5.710;2023-02-03T09:37:51;9.50;99.90
53844;DHT22;39744;53.314;5.710;2023-02-03T09:40:24;8.10;99.90
53844;DHT22;39744;53.314;5.710;2023-02-03T09:42:57;8.30;99.90
53844;DHT22;39744;53.314;5.710;2023-02-03T09:45:26;8.30;99.90
53844;DHT22;39744;53.314;5.710;2023-02-03T09:47:52;8.30;99.90
53844;DHT22;39744;53.314;5.710;2023-02-03T09:50:22;8.10;99.90
53844;DHT22;39744;53.314;5.710;2023-02-03T09:52:48;8.40;99.90
53844;DHT22;39744;53.314;5.710;2023-02-03T09:58:07;8.30;99.90
53844;DHT22;39744;53.314;5.710;2023-02-03T10:00:34;8.20;99.90
53844;DHT22;39744;53.314;5.710;2023-02-03T10:03:05;8.10;99.90
53844;DHT22;39744;53.314;5.710;2023-02-03T10:10:37;8.00;99.90
53844;DHT22;39744;53.314;5.710;2023-02-03T10:13:08;8.30;99.90
53844;DHT22;39744;53.314;5.710;2023-02-03T10:18:16;8.20;99.90
53844;DHT22;39744;53.314;5.710;2023-02-03T10:20:44;8.30;99.90
53844;DHT22;39744;53.314;5.710;2023-02-03T10:23:12;8.10;99.90
53844;DHT22;39744;53.314;5.710;2023-02-03T10:25:40;8.10;99.90
53844;DHT22;39744;53.314;5.710;2023-02-03T10:28:17;8.10;99.90
53844;DHT22;39744;53.314;5.710;2023-02-03T10:30:45;8.20;99.90
53844;DHT22;39744;53.314;5.710;2023-02-03T10:33:14;8.00;99.90
53844;DHT22;39744;53.314;5.710;2023-02-03T10:35:46;8.10;99.90
53844;DHT22;39744;53.314;5.710;2023-02-03T10:38:20;8.00;99.90
53844;DHT22;39744;53.314;5.710;2023-02-03T10:40:48;8.10;99.90
53844;DHT22;39744;53.314;5.710;2023-02-03T10:43:13;8.10;99.90
53844;DHT22;39744;53.314;5.710;2023-02-03T10:45:57;8.10;99.90
53844;DHT22;39744;53.314;5.710;2023-02-03T10:48:24;8.00;99.90
53844;DHT22;39744;53.314;5.710;2023-02-03T10:50:49;8.20;99.90
53844;DHT22;39744;53.314;5.710;2023-02-03T10:53:20;8.20;99.90
53844;DHT22;39744;53.314;5.710;2023-02-03T10:58:25;8.30;99.90
53844;DHT22;39744;53.314;5.710;2023-02-03T11:01:03;8.10;99.90
53844;DHT22;39744;53.314;5.710;2023-02-03T11:03:30;8.30;99.90
53844;DHT22;39744;53.314;5.710;2023-02-03T11:06:02;8.30;99.90
53844;DHT22;39744;53.314;5.710;2023-02-03T11:08:29;8.50;99.90
53844;DHT22;39744;53.314;5.710;2023-02-03T11:11:00;8.20;99.90
53844;DHT22;39744;53.314;5.710;2023-02-03T11:13:26;8.30;99.90
53844;DHT22;39744;53.314;5.710;2023-02-03T11:15:52;8.30;99.90
53844;DHT22;39744;53.314;5.710;2023-02-03T11:21:00;8.30;99.90
53844;DHT22;39744;53.314;5.710;2023-02-03T11:23:30;8.10;99.90
53844;DHT22;39744;53.314;5.710;2023-02-03T11:25:55;8.10;99.90
53844;DHT22;39744;53.314;5.710;2023-02-03T11:28:21;8.00;99.90
53844;DHT22;39744;53.314;5.710;2023-02-03T11:30:55;8.20;99.90
53844;DHT22;39744;53.314;5.710;2023-02-03T11:33:23;8.30;99.90
53844;DHT22;39744;53.314;5.710;2023-02-03T11:35:54;8.10;99.90
53844;DHT22;39744;53.314;5.710;2023-02-03T11:38:28;8.20;99.90
53844;DHT22;39744;53.314;5.710;2023-02-03T11:41:00;8.40;99.90
53844;DHT22;39744;53.314;5.710;2023-02-03T11:43:25;8.30;99.90
53844;DHT22;39744;53.314;5.710;2023-02-03T11:45:52;8.10;99.90
53844;DHT22;39744;53.314;5.710;2023-02-03T11:50:54;8.20;99.90
53844;DHT22;39744;53.314;5.710;2023-02-03T11:53:29;8.10;99.90
53844;DHT22;39744;53.314;5.710;2023-02-03T11:58:36;8.20;99.90
53844;DHT22;39744;53.314;5.710;2023-02-03T12:09:02;8.10;99.90
53844;DHT22;39744;53.314;5.710;2023-02-03T12:11:36;8.10;99.90
53844;DHT22;39744;53.314;5.710;2023-02-03T12:14:22;8.10;99.90
53844;DHT22;39744;53.314;5.710;2023-02-03T12:17:00;8.10;99.90
53844;DHT22;39744;53.314;5.710;2023-02-03T12:19:36;8.10;99.90
53844;DHT22;39744;53.314;5.710;2023-02-03T12:22:09;8.20;99.90
53844;DHT22;39744;53.314;5.710;2023-02-03T12:24:43;8.10;99.90
53844;DHT22;39744;53.314;5.710;2023-02-03T12:32:51;8.30;99.90
53844;DHT22;39744;53.314;5.710;2023-02-03T12:35:23;8.30;99.90
53844;DHT22;39744;53.314;5.710;2023-02-03T12:38:04;8.40;99.90
53844;DHT22;39744;53.314;5.710;2023-02-03T12:40:35;8.40;99.90
53844;DHT22;39744;53.314;5.710;2023-02-03T12:43:48;8.40;99.90
53844;DHT22;39744;53.314;5.710;2023-02-03T12:45:52;8.20;99.90
53844;DHT22;39744;53.314;5.710;2023-02-03T12:48:19;8.30;99.90
53844;DHT22;39744;53.314;5.710;2023-02-03T12:50:48;8.20;99.90
53844;DHT22;39744;53.314;5.710;2023-02-03T12:53:22;8.10;99.90
53844;DHT22;39744;53.314;5.710;2023-02-03T12:55:54;8.40;99.90
53844;DHT22;39744;53.314;5.710;2023-02-03T13:01:06;8.20;99.90
53844;DHT22;39744;53.314;5.710;2023-02-03T13:06:05;8.40;99.90
53844;DHT22;39744;53.314;5.710;2023-02-03T13:09:19;8.50;99.90
53844;DHT22;39744;53.314;5.710;2023-02-03T13:13:55;8.60;99.90
53844;DHT22;39744;53.314;5.710;2023-02-03T13:16:29;8.40;99.90
53844;DHT22;39744;53.314;5.710;2023-02-03T13:18:58;8.50;99.90
53844;DHT22;39744;53.314;5.710;2023-02-03T13:21:26;8.40;99.90
53844;DHT22;39744;53.314;5.710;2023-02-03T13:23:52;8.40;99.90
53844;DHT22;39744;53.314;5.710;2023-02-03T13:31:27;8.50;99.90
53844;DHT22;39744;53.314;5.710;2023-02-03T13:39:30;8.60;99.90
53844;DHT22;39744;53.314;5.710;2023-02-03T13:44:37;8.40;99.90
53844;DHT22;39744;53.314;5.710;2023-02-03T13:47:03;8.20;99.90
53844;DHT22;39744;53.314;5.710;2023-02-03T13:49:31;8.30;99.90
53844;DHT22;39744;53.314;5.710;2023-02-03T13:51:57;8.10;99.90
53844;DHT22;39744;53.314;5.710;2023-02-03T13:54:31;8.10;99.90
53844;DHT22;39744;53.314;5.710;2023-02-03T13:56:58;8.20;99.90
53844;DHT22;39744;53.314;5.710;2023-02-03T13:59:37;7.90;99.90
53844;DHT22;39744;53.314;5.710;2023-02-03T14:09:57;8.20;99.90
53844;DHT22;39744;53.314;5.710;2023-02-03T14:12:31;8.10;99.90
53844;DHT22;39744;53.314;5.710;2023-02-03T14:14:58;8.10;99.90
53844;DHT22;39744;53.314;5.710;2023-02-03T14:20:01;8.30;99.90
53844;DHT22;39744;53.314;5.710;2023-02-03T14:22:27;8.10;99.90
53844;DHT22;39744;53.314;5.710;2023-02-03T14:24:53;8.10;99.90
53844;DHT22;39744;53.314;5.710;2023-02-03T14:27:26;9.70;99.90
53844;DHT22;39744;53.314;5.710;2023-02-03T14:32:47;8.20;99.90
53844;DHT22;39744;53.314;5.710;2023-02-03T14:35:17;8.30;99.90
53844;DHT22;39744;53.314;5.710;2023-02-03T14:37:53;8.00;99.90
53844;DHT22;39744;53.314;5.710;2023-02-03T14:48:18;8.20;99.90
53844;DHT22;39744;53.314;5.710;2023-02-03T14:50:54;8.20;99.90
53844;DHT22;39744;53.314;5.710;2023-02-03T14:58:34;8.10;99.90
53844;DHT22;39744;53.314;5.710;2023-02-03T15:01:04;7.80;99.90
53844;DHT22;39744;53.314;5.710;2023-02-03T15:03:29;7.90;99.90
53844;DHT22;39744;53.314;5.710;2023-02-03T15:05:57;7.70;99.90
53844;DHT22;39744;53.314;5.710;2023-02-03T15:10:54;8.00;99.90
53844;DHT22;39744;53.314;5.710;2023-02-03T15:13:24;7.70;99.90
53844;DHT22;39744;53.314;5.710;2023-02-03T15:15:51;7.90;99.90
53844;DHT22;39744;53.314;5.710;2023-02-03T15:18:21;7.40;99.90
53844;DHT22;39744;53.314;5.710;2023-02-03T15:20:51;7.90;99.90
53844;DHT22;39744;53.314;5.710;2023-02-03T15:23:24;7.60;99.90
53844;DHT22;39744;53.314;5.710;2023-02-03T15:28:21;7.80;99.90
53844;DHT22;39744;53.314;5.710;2023-02-03T15:30:51;7.60;99.90
53844;DHT22;39744;53.314;5.710;2023-02-03T15:33:19;7.60;99.90
53844;DHT22;39744;53.314;5.710;2023-02-03T15:35:52;7.60;99.90
53844;DHT22;39744;53.314;5.710;2023-02-03T15:38:20;7.90;99.90
53844;DHT22;39744;53.314;5.710;2023-02-03T15:40:48;8.00;99.90
53844;DHT22;39744;53.314;5.710;2023-02-03T15:46:03;7.80;99.90
53844;DHT22;39744;53.314;5.710;2023-02-03T15:48:50;7.80;99.90
53844;DHT22;39744;53.314;5.710;2023-02-03T15:51:21;7.70;99.90
53844;DHT22;39744;53.314;5.710;2023-02-03T15:53:53;7.70;99.90
53844;DHT22;39744;53.314;5.710;2023-02-03T15:56:22;7.70;99.90
53844;DHT22;39744;53.314;5.710;2023-02-03T15:58:50;7.50;99.90
53844;DHT22;39744;53.314;5.710;2023-02-03T16:01:18;7.50;99.90
53844;DHT22;39744;53.314;5.710;2023-02-03T16:03:46;7.50;99.90
53844;DHT22;39744;53.314;5.710;2023-02-03T16:08:41;7.50;99.90
53844;DHT22;39744;53.314;5.710;2023-02-03T16:11:23;7.50;99.90
53844;DHT22;39744;53.314;5.710;2023-02-03T16:13:50;7.60;99.90
53844;DHT22;39744;53.314;5.710;2023-02-03T16:16:17;7.40;99.90
53844;DHT22;39744;53.314;5.710;2023-02-03T16:18:55;7.40;99.90
53844;DHT22;39744;53.314;5.710;2023-02-03T16:21:24;7.60;99.90
53844;DHT22;39744;53.314;5.710;2023-02-03T16:23:51;7.60;99.90
53844;DHT22;39744;53.314;5.710;2023-02-03T16:26:17;7.40;99.90
53844;DHT22;39744;53.314;5.710;2023-02-03T16:28:53;8.10;99.90
53844;DHT22;39744;53.314;5.710;2023-02-03T16:31:40;7.40;99.90
53844;DHT22;39744;53.314;5.710;2023-02-03T16:34:26;7.40;99.90
53844;DHT22;39744;53.314;5.710;2023-02-03T16:37:19;8.10;99.90
53844;DHT22;39744;53.314;5.710;2023-02-03T16:40:05;7.60;99.90
53844;DHT22;39744;53.314;5.710;2023-02-03T16:42:50;7.50;99.90
53844;DHT22;39744;53.314;5.710;2023-02-03T16:45:34;7.40;99.90
53844;DHT22;39744;53.314;5.710;2023-02-03T16:48:18;7.40;99.90
53844;DHT22;39744;53.314;5.710;2023-02-03T16:51:12;7.30;99.90
53844;DHT22;39744;53.314;5.710;2023-02-03T16:53:40;7.40;99.90
53844;DHT22;39744;53.314;5.710;2023-02-03T16:56:06;7.80;99.90
53844;DHT22;39744;53.314;5.710;2023-02-03T16:58:32;7.20;99.90
53844;DHT22;39744;53.314;5.710;2023-02-03T17:00:59;7.20;99.90
53844;DHT22;39744;53.314;5.710;2023-02-03T17:03:26;6.80;99.90
53844;DHT22;39744;53.314;5.710;2023-02-03T17:05:52;7.10;99.90
53844;DHT22;39744;53.314;5.710;2023-02-03T17:08:18;7.00;99.90
53844;DHT22;39744;53.314;5.710;2023-02-03T17:10:44;7.30;99.90
53844;DHT22;39744;53.314;5.710;2023-02-03T17:13:12;7.00;99.90
53844;DHT22;39744;53.314;5.710;2023-02-03T17:15:41;7.10;99.90
53844;DHT22;39744;53.314;5.710;2023-02-03T17:18:07;6.60;99.90
53844;DHT22;39744;53.314;5.710;2023-02-03T17:20:33;7.10;99.90
53844;DHT22;39744;53.314;5.710;2023-02-03T17:22:58;7.00;99.90
53844;DHT22;39744;53.314;5.710;2023-02-03T17:25:24;7.10;99.90
53844;DHT22;39744;53.314;5.710;2023-02-03T17:27:50;7.00;99.90
53844;DHT22;39744;53.314;5.710;2023-02-03T17:30:15;7.20;99.90
53844;DHT22;39744;53.314;5.710;2023-02-03T17:32:41;7.50;99.90
53844;DHT22;39744;53.314;5.710;2023-02-03T17:35:06;6.40;99.90
53844;DHT22;39744;53.314;5.710;2023-02-03T17:37:32;7.40;99.90
53844;DHT22;39744;53.314;5.710;2023-02-03T17:39:58;7.10;99.90
53844;DHT22;39744;53.314;5.710;2023-02-03T17:42:23;7.20;99.90
53844;DHT22;39744;53.314;5.710;2023-02-03T17:44:49;7.00;99.90
53844;DHT22;39744;53.314;5.710;2023-02-03T17:47:14;7.10;99.90
53844;DHT22;39744;53.314;5.710;2023-02-03T17:49:40;6.90;99.90
53844;DHT22;39744;53.314;5.710;2023-02-03T17:52:05;7.10;99.90